sensor_id;sensor_type;location;lat;lon;timestamp;P1;durP1;ratioP1;P2;durP2;ratioP2
31206;SDS011;17834;52.992;8.856;2023-08-17T00:00:06;7.93;;;2.25;;
31206;SDS011;17834;52.992;8.856;2023-08-17T00:02:38;8.98;;;1.80;;
31206;SDS011;17834;52.992;8.856;2023-08-17T00:05:04;6.95;;;1.92;;
31206;SDS011;17834;52.992;8.856;2023-08-17T00:07:31;2.92;;;1.52;;
31206;SDS011;17834;52.992;8.856;2023-08-17T00:09:57;5.57;;;1.80;;
31206;SDS011;17834;52.992;8.856;2023-08-17T00:12:22;3.95;;;1.67;;
31206;SDS011;17834;52.992;8.856;2023-08-17T00:14:48;4.30;;;1.65;;
31206;SDS011;17834;52.992;8.856;2023-08-17T00:17:13;5.03;;;2.20;;
31206;SDS011;17834;52.992;8.856;2023-08-17T00:19:39;2.67;;;1.42;;
31206;SDS011;17834;52.992;8.856;2023-08-17T00:22:04;3.30;;;1.80;;
31206;SDS011;17834;52.992;8.856;2023-08-17T00:24:30;3.63;;;1.70;;
31206;SDS011;17834;52.992;8.856;2023-08-17T00:26:55;6.35;;;1.77;;
31206;SDS011;17834;52.992;8.856;2023-08-17T00:29:20;5.25;;;1.63;;
31206;SDS011;17834;52.992;8.856;2023-08-17T00:31:47;5.88;;;1.98;;
31206;SDS011;17834;52.992;8.856;2023-08-17T00:34:12;4.40;;;1.70;;
31206;SDS011;17834;52.992;8.856;2023-08-17T00:36:38;5.95;;;1.67;;
31206;SDS011;17834;52.992;8.856;2023-08-17T00:39:03;5.45;;;1.92;;
31206;SDS011;17834;52.992;8.856;2023-08-17T00:41:29;8.10;;;2.17;;
31206;SDS011;17834;52.992;8.856;2023-08-17T00:43:55;4.30;;;1.80;;
31206;SDS011;17834;52.992;8.856;2023-08-17T00:46:21;5.15;;;1.60;;
31206;SDS011;17834;52.992;8.856;2023-08-17T00:48:48;6.10;;;1.92;;
31206;SDS011;17834;52.992;8.856;2023-08-17T00:51:14;6.88;;;2.08;;
31206;SDS011;17834;52.992;8.856;2023-08-17T00:53:40;3.35;;;1.70;;
31206;SDS011;17834;52.992;8.856;2023-08-17T00:56:06;4.63;;;1.60;;
31206;SDS011;17834;52.992;8.856;2023-08-17T00:58:33;5.13;;;1.90;;
31206;SDS011;17834;52.992;8.856;2023-08-17T01:00:58;4.88;;;1.83;;
31206;SDS011;17834;52.992;8.856;2023-08-17T01:03:24;4.65;;;1.85;;
31206;SDS011;17834;52.992;8.856;2023-08-17T01:05:55;6.80;;;1.98;;
31206;SDS011;17834;52.992;8.856;2023-08-17T01:08:21;4.20;;;1.77;;
31206;SDS011;17834;52.992;8.856;2023-08-17T01:11:02;6.75;;;1.80;;
31206;SDS011;17834;52.992;8.856;2023-08-17T01:13:38;5.32;;;2.00;;
31206;SDS011;17834;52.992;8.856;2023-08-17T01:16:15;9.15;;;1.98;;
31206;SDS011;17834;52.992;8.856;2023-08-17T01:18:45;3.70;;;2.00;;
31206;SDS011;17834;52.992;8.856;2023-08-17T01:21:13;4.25;;;1.90;;
31206;SDS011;17834;52.992;8.856;2023-08-17T01:23:43;5.18;;;2.15;;
31206;SDS011;17834;52.992;8.856;2023-08-17T01:26:10;4.28;;;2.10;;
31206;SDS011;17834;52.992;8.856;2023-08-17T01:28:35;6.18;;;2.13;;
31206;SDS011;17834;52.992;8.856;2023-08-17T01:31:08;8.80;;;1.95;;
31206;SDS011;17834;52.992;8.856;2023-08-17T01:36:11;4.15;;;2.17;;
31206;SDS011;17834;52.992;8.856;2023-08-17T01:38:43;4.75;;;2.30;;
31206;SDS011;17834;52.992;8.856;2023-08-17T01:41:10;4.43;;;3.00;;
31206;SDS011;17834;52.992;8.856;2023-08-17T01:43:43;4.45;;;2.00;;
31206;SDS011;17834;52.992;8.856;2023-08-17T01:46:13;6.55;;;2.08;;
31206;SDS011;17834;52.992;8.856;2023-08-17T01:48:40;8.73;;;3.08;;
31206;SDS011;17834;52.992;8.856;2023-08-17T01:51:06;10.07;;;2.22;;
31206;SDS011;17834;52.992;8.856;2023-08-17T01:53:31;5.97;;;2.30;;
31206;SDS011;17834;52.992;8.856;2023-08-17T01:55:57;3.70;;;2.10;;
31206;SDS011;17834;52.992;8.856;2023-08-17T01:58:22;8.57;;;2.17;;
31206;SDS011;17834;52.992;8.856;2023-08-17T02:00:48;5.30;;;1.95;;
31206;SDS011;17834;52.992;8.856;2023-08-17T02:03:13;4.47;;;2.10;;
31206;SDS011;17834;52.992;8.856;2023-08-17T02:05:43;6.82;;;2.45;;
31206;SDS011;17834;52.992;8.856;2023-08-17T02:08:12;6.50;;;2.08;;
31206;SDS011;17834;52.992;8.856;2023-08-17T02:10:37;4.55;;;1.98;;
31206;SDS011;17834;52.992;8.856;2023-08-17T02:13:03;5.22;;;2.08;;
31206;SDS011;17834;52.992;8.856;2023-08-17T02:15:29;6.22;;;2.13;;
31206;SDS011;17834;52.992;8.856;2023-08-17T02:17:54;6.80;;;2.55;;
31206;SDS011;17834;52.992;8.856;2023-08-17T02:20:21;4.93;;;2.05;;
31206;SDS011;17834;52.992;8.856;2023-08-17T02:22:47;4.38;;;2.55;;
31206;SDS011;17834;52.992;8.856;2023-08-17T02:25:12;5.60;;;2.15;;
31206;SDS011;17834;52.992;8.856;2023-08-17T02:27:38;6.10;;;2.30;;
31206;SDS011;17834;52.992;8.856;2023-08-17T02:30:04;13.25;;;2.45;;
31206;SDS011;17834;52.992;8.856;2023-08-17T02:32:29;5.10;;;2.35;;
31206;SDS011;17834;52.992;8.856;2023-08-17T02:34:55;6.53;;;2.13;;
31206;SDS011;17834;52.992;8.856;2023-08-17T02:37:20;4.32;;;2.20;;
31206;SDS011;17834;52.992;8.856;2023-08-17T02:39:46;5.18;;;2.47;;
31206;SDS011;17834;52.992;8.856;2023-08-17T02:42:11;7.68;;;2.28;;
31206;SDS011;17834;52.992;8.856;2023-08-17T02:44:37;6.18;;;2.00;;
31206;SDS011;17834;52.992;8.856;2023-08-17T02:47:02;4.57;;;2.50;;
31206;SDS011;17834;52.992;8.856;2023-08-17T02:49:28;9.32;;;2.88;;
31206;SDS011;17834;52.992;8.856;2023-08-17T02:51:53;12.07;;;3.42;;
31206;SDS011;17834;52.992;8.856;2023-08-17T02:54:19;13.85;;;3.97;;
31206;SDS011;17834;52.992;8.856;2023-08-17T02:56:44;7.57;;;2.92;;
31206;SDS011;17834;52.992;8.856;2023-08-17T02:59:10;5.57;;;2.67;;
31206;SDS011;17834;52.992;8.856;2023-08-17T03:01:35;5.82;;;2.50;;
31206;SDS011;17834;52.992;8.856;2023-08-17T03:04:01;4.97;;;2.05;;
31206;SDS011;17834;52.992;8.856;2023-08-17T03:06:26;7.72;;;2.22;;
31206;SDS011;17834;52.992;8.856;2023-08-17T03:08:52;5.63;;;2.15;;
31206;SDS011;17834;52.992;8.856;2023-08-17T03:11:18;5.70;;;2.00;;
31206;SDS011;17834;52.992;8.856;2023-08-17T03:13:45;5.38;;;2.47;;
31206;SDS011;17834;52.992;8.856;2023-08-17T03:16:12;5.95;;;2.00;;
31206;SDS011;17834;52.992;8.856;2023-08-17T03:18:38;6.28;;;1.98;;
31206;SDS011;17834;52.992;8.856;2023-08-17T03:21:03;8.30;;;2.63;;
31206;SDS011;17834;52.992;8.856;2023-08-17T03:23:29;8.85;;;2.25;;
31206;SDS011;17834;52.992;8.856;2023-08-17T03:25:54;2.85;;;1.83;;
31206;SDS011;17834;52.992;8.856;2023-08-17T03:28:20;6.35;;;2.45;;
31206;SDS011;17834;52.992;8.856;2023-08-17T03:30:46;7.03;;;2.92;;
31206;SDS011;17834;52.992;8.856;2023-08-17T03:33:11;8.80;;;2.90;;
31206;SDS011;17834;52.992;8.856;2023-08-17T03:35:37;6.07;;;2.45;;
31206;SDS011;17834;52.992;8.856;2023-08-17T03:38:02;6.97;;;2.60;;
31206;SDS011;17834;52.992;8.856;2023-08-17T03:40:28;6.45;;;2.53;;
31206;SDS011;17834;52.992;8.856;2023-08-17T03:42:53;6.82;;;2.67;;
31206;SDS011;17834;52.992;8.856;2023-08-17T03:45:19;4.88;;;2.15;;
31206;SDS011;17834;52.992;8.856;2023-08-17T03:47:45;8.55;;;2.50;;
31206;SDS011;17834;52.992;8.856;2023-08-17T03:50:10;6.55;;;2.13;;
31206;SDS011;17834;52.992;8.856;2023-08-17T03:52:35;5.30;;;2.53;;
31206;SDS011;17834;52.992;8.856;2023-08-17T03:55:01;5.60;;;2.53;;
31206;SDS011;17834;52.992;8.856;2023-08-17T03:57:27;5.55;;;2.30;;
31206;SDS011;17834;52.992;8.856;2023-08-17T03:59:52;5.45;;;2.08;;
31206;SDS011;17834;52.992;8.856;2023-08-17T04:02:18;5.43;;;2.17;;
31206;SDS011;17834;52.992;8.856;2023-08-17T04:04:43;5.03;;;2.00;;
31206;SDS011;17834;52.992;8.856;2023-08-17T04:07:09;5.13;;;1.95;;
31206;SDS011;17834;52.992;8.856;2023-08-17T04:09:34;5.60;;;2.25;;
31206;SDS011;17834;52.992;8.856;2023-08-17T04:12:01;9.60;;;2.85;;
31206;SDS011;17834;52.992;8.856;2023-08-17T04:14:29;5.18;;;3.00;;
31206;SDS011;17834;52.992;8.856;2023-08-17T04:16:54;5.15;;;2.60;;
31206;SDS011;17834;52.992;8.856;2023-08-17T04:19:21;5.20;;;2.70;;
31206;SDS011;17834;52.992;8.856;2023-08-17T04:21:47;7.35;;;2.97;;
31206;SDS011;17834;52.992;8.856;2023-08-17T04:24:12;9.52;;;3.13;;
31206;SDS011;17834;52.992;8.856;2023-08-17T04:26:38;9.70;;;3.50;;
31206;SDS011;17834;52.992;8.856;2023-08-17T04:29:03;9.93;;;3.40;;
31206;SDS011;17834;52.992;8.856;2023-08-17T04:31:29;9.88;;;3.17;;
31206;SDS011;17834;52.992;8.856;2023-08-17T04:33:54;8.23;;;3.67;;
31206;SDS011;17834;52.992;8.856;2023-08-17T04:36:20;8.48;;;3.53;;
31206;SDS011;17834;52.992;8.856;2023-08-17T04:38:45;8.00;;;3.65;;
31206;SDS011;17834;52.992;8.856;2023-08-17T04:41:11;11.32;;;4.05;;
31206;SDS011;17834;52.992;8.856;2023-08-17T04:43:36;7.88;;;3.25;;
31206;SDS011;17834;52.992;8.856;2023-08-17T04:46:02;6.75;;;3.58;;
31206;SDS011;17834;52.992;8.856;2023-08-17T04:48:27;7.22;;;3.53;;
31206;SDS011;17834;52.992;8.856;2023-08-17T04:50:53;7.63;;;3.60;;
31206;SDS011;17834;52.992;8.856;2023-08-17T04:53:18;8.23;;;3.45;;
31206;SDS011;17834;52.992;8.856;2023-08-17T04:55:44;8.32;;;2.75;;
31206;SDS011;17834;52.992;8.856;2023-08-17T04:58:09;6.63;;;2.78;;
31206;SDS011;17834;52.992;8.856;2023-08-17T05:00:35;8.95;;;2.75;;
31206;SDS011;17834;52.992;8.856;2023-08-17T05:03:00;7.95;;;3.28;;
31206;SDS011;17834;52.992;8.856;2023-08-17T05:05:26;8.50;;;3.60;;
31206;SDS011;17834;52.992;8.856;2023-08-17T05:07:52;10.55;;;3.83;;
31206;SDS011;17834;52.992;8.856;2023-08-17T05:10:17;7.30;;;3.50;;
31206;SDS011;17834;52.992;8.856;2023-08-17T05:12:43;12.82;;;3.35;;
31206;SDS011;17834;52.992;8.856;2023-08-17T05:15:09;7.95;;;3.28;;
31206;SDS011;17834;52.992;8.856;2023-08-17T05:17:34;6.57;;;3.47;;
31206;SDS011;17834;52.992;8.856;2023-08-17T05:20:00;6.97;;;3.60;;
31206;SDS011;17834;52.992;8.856;2023-08-17T05:22:27;7.57;;;3.80;;
31206;SDS011;17834;52.992;8.856;2023-08-17T05:24:52;8.15;;;3.30;;
31206;SDS011;17834;52.992;8.856;2023-08-17T05:27:18;6.22;;;3.50;;
31206;SDS011;17834;52.992;8.856;2023-08-17T05:29:43;6.47;;;2.95;;
31206;SDS011;17834;52.992;8.856;2023-08-17T05:32:09;10.55;;;4.40;;
31206;SDS011;17834;52.992;8.856;2023-08-17T05:34:34;8.30;;;3.20;;
31206;SDS011;17834;52.992;8.856;2023-08-17T05:37:00;8.68;;;3.25;;
31206;SDS011;17834;52.992;8.856;2023-08-17T05:39:25;5.78;;;2.92;;
31206;SDS011;17834;52.992;8.856;2023-08-17T05:41:51;7.95;;;2.95;;
31206;SDS011;17834;52.992;8.856;2023-08-17T05:44:17;10.52;;;2.97;;
31206;SDS011;17834;52.992;8.856;2023-08-17T05:46:43;6.10;;;3.00;;
31206;SDS011;17834;52.992;8.856;2023-08-17T05:49:08;5.03;;;2.90;;
31206;SDS011;17834;52.992;8.856;2023-08-17T05:51:34;9.57;;;3.17;;
31206;SDS011;17834;52.992;8.856;2023-08-17T05:53:59;9.35;;;3.13;;
31206;SDS011;17834;52.992;8.856;2023-08-17T05:56:25;5.40;;;2.88;;
31206;SDS011;17834;52.992;8.856;2023-08-17T05:58:50;8.90;;;3.20;;
31206;SDS011;17834;52.992;8.856;2023-08-17T06:01:16;5.43;;;2.90;;
31206;SDS011;17834;52.992;8.856;2023-08-17T06:03:41;6.07;;;3.65;;
31206;SDS011;17834;52.992;8.856;2023-08-17T06:06:07;7.43;;;3.42;;
31206;SDS011;17834;52.992;8.856;2023-08-17T06:08:34;7.97;;;2.67;;
31206;SDS011;17834;52.992;8.856;2023-08-17T06:10:59;9.68;;;2.90;;
31206;SDS011;17834;52.992;8.856;2023-08-17T06:13:25;7.35;;;3.13;;
31206;SDS011;17834;52.992;8.856;2023-08-17T06:15:50;6.53;;;2.65;;
31206;SDS011;17834;52.992;8.856;2023-08-17T06:18:16;9.70;;;3.08;;
31206;SDS011;17834;52.992;8.856;2023-08-17T06:20:42;8.15;;;2.97;;
31206;SDS011;17834;52.992;8.856;2023-08-17T06:23:07;6.30;;;2.75;;
31206;SDS011;17834;52.992;8.856;2023-08-17T06:25:33;12.38;;;3.28;;
31206;SDS011;17834;52.992;8.856;2023-08-17T06:27:59;6.57;;;3.10;;
31206;SDS011;17834;52.992;8.856;2023-08-17T06:30:25;8.88;;;2.78;;
31206;SDS011;17834;52.992;8.856;2023-08-17T06:32:50;5.60;;;2.75;;
31206;SDS011;17834;52.992;8.856;2023-08-17T06:35:16;6.13;;;3.05;;
31206;SDS011;17834;52.992;8.856;2023-08-17T06:37:42;5.82;;;2.67;;
31206;SDS011;17834;52.992;8.856;2023-08-17T06:40:07;7.55;;;3.13;;
31206;SDS011;17834;52.992;8.856;2023-08-17T06:42:36;5.35;;;3.17;;
31206;SDS011;17834;52.992;8.856;2023-08-17T06:45:02;8.18;;;3.55;;
31206;SDS011;17834;52.992;8.856;2023-08-17T06:47:29;7.03;;;2.90;;
31206;SDS011;17834;52.992;8.856;2023-08-17T06:49:54;6.53;;;3.35;;
31206;SDS011;17834;52.992;8.856;2023-08-17T06:52:22;4.75;;;3.10;;
31206;SDS011;17834;52.992;8.856;2023-08-17T06:54:48;5.03;;;2.88;;
31206;SDS011;17834;52.992;8.856;2023-08-17T06:57:13;9.82;;;3.45;;
31206;SDS011;17834;52.992;8.856;2023-08-17T06:59:39;6.18;;;3.00;;
31206;SDS011;17834;52.992;8.856;2023-08-17T07:02:05;7.03;;;3.33;;
31206;SDS011;17834;52.992;8.856;2023-08-17T07:04:31;5.57;;;3.08;;
31206;SDS011;17834;52.992;8.856;2023-08-17T07:06:56;9.20;;;2.85;;
31206;SDS011;17834;52.992;8.856;2023-08-17T07:09:22;7.63;;;2.95;;
31206;SDS011;17834;52.992;8.856;2023-08-17T07:11:47;10.95;;;3.53;;
31206;SDS011;17834;52.992;8.856;2023-08-17T07:14:13;5.82;;;2.95;;
31206;SDS011;17834;52.992;8.856;2023-08-17T07:16:38;6.80;;;3.17;;
31206;SDS011;17834;52.992;8.856;2023-08-17T07:19:04;5.63;;;3.10;;
31206;SDS011;17834;52.992;8.856;2023-08-17T07:21:29;9.05;;;3.40;;
31206;SDS011;17834;52.992;8.856;2023-08-17T07:23:55;5.18;;;3.40;;
31206;SDS011;17834;52.992;8.856;2023-08-17T07:26:21;7.25;;;3.72;;
31206;SDS011;17834;52.992;8.856;2023-08-17T07:28:47;8.60;;;3.03;;
31206;SDS011;17834;52.992;8.856;2023-08-17T07:31:13;6.00;;;3.00;;
31206;SDS011;17834;52.992;8.856;2023-08-17T07:33:39;6.07;;;3.10;;
31206;SDS011;17834;52.992;8.856;2023-08-17T07:36:05;5.28;;;2.65;;
31206;SDS011;17834;52.992;8.856;2023-08-17T07:38:30;7.20;;;2.95;;
31206;SDS011;17834;52.992;8.856;2023-08-17T07:40:56;7.28;;;3.13;;
31206;SDS011;17834;52.992;8.856;2023-08-17T07:43:22;6.53;;;2.70;;
31206;SDS011;17834;52.992;8.856;2023-08-17T07:45:54;6.43;;;2.92;;
31206;SDS011;17834;52.992;8.856;2023-08-17T07:48:21;7.07;;;3.17;;
31206;SDS011;17834;52.992;8.856;2023-08-17T07:50:50;6.88;;;2.75;;
31206;SDS011;17834;52.992;8.856;2023-08-17T07:53:16;4.32;;;2.70;;
31206;SDS011;17834;52.992;8.856;2023-08-17T07:55:45;4.07;;;2.60;;
31206;SDS011;17834;52.992;8.856;2023-08-17T07:58:10;5.80;;;2.53;;
31206;SDS011;17834;52.992;8.856;2023-08-17T08:00:36;6.57;;;2.75;;
31206;SDS011;17834;52.992;8.856;2023-08-17T08:03:02;5.75;;;2.75;;
31206;SDS011;17834;52.992;8.856;2023-08-17T08:05:28;4.43;;;2.88;;
31206;SDS011;17834;52.992;8.856;2023-08-17T08:07:53;5.13;;;2.20;;
31206;SDS011;17834;52.992;8.856;2023-08-17T08:10:19;6.38;;;2.53;;
31206;SDS011;17834;52.992;8.856;2023-08-17T08:12:44;8.18;;;3.45;;
31206;SDS011;17834;52.992;8.856;2023-08-17T08:15:10;3.33;;;2.05;;
31206;SDS011;17834;52.992;8.856;2023-08-17T08:17:35;3.88;;;2.13;;
31206;SDS011;17834;52.992;8.856;2023-08-17T08:20:01;4.22;;;2.15;;
31206;SDS011;17834;52.992;8.856;2023-08-17T08:22:27;3.33;;;2.08;;
31206;SDS011;17834;52.992;8.856;2023-08-17T08:24:53;3.50;;;1.90;;
31206;SDS011;17834;52.992;8.856;2023-08-17T08:27:18;2.83;;;1.73;;
31206;SDS011;17834;52.992;8.856;2023-08-17T08:29:44;3.65;;;1.80;;
31206;SDS011;17834;52.992;8.856;2023-08-17T08:32:10;2.85;;;1.77;;
31206;SDS011;17834;52.992;8.856;2023-08-17T08:34:35;2.78;;;1.65;;
31206;SDS011;17834;52.992;8.856;2023-08-17T08:37:01;3.60;;;1.45;;
31206;SDS011;17834;52.992;8.856;2023-08-17T08:39:26;4.82;;;1.80;;
31206;SDS011;17834;52.992;8.856;2023-08-17T08:41:52;3.45;;;1.95;;
31206;SDS011;17834;52.992;8.856;2023-08-17T08:44:18;5.72;;;1.70;;
31206;SDS011;17834;52.992;8.856;2023-08-17T08:46:44;3.47;;;1.70;;
31206;SDS011;17834;52.992;8.856;2023-08-17T08:49:10;4.65;;;1.92;;
31206;SDS011;17834;52.992;8.856;2023-08-17T08:51:37;3.40;;;1.85;;
31206;SDS011;17834;52.992;8.856;2023-08-17T08:54:07;2.58;;;1.42;;
31206;SDS011;17834;52.992;8.856;2023-08-17T08:56:37;3.55;;;1.70;;
31206;SDS011;17834;52.992;8.856;2023-08-17T08:59:07;3.17;;;1.60;;
31206;SDS011;17834;52.992;8.856;2023-08-17T09:01:33;2.83;;;1.63;;
31206;SDS011;17834;52.992;8.856;2023-08-17T09:03:59;3.63;;;1.77;;
31206;SDS011;17834;52.992;8.856;2023-08-17T09:06:29;3.25;;;2.35;;
31206;SDS011;17834;52.992;8.856;2023-08-17T09:08:56;4.57;;;1.55;;
31206;SDS011;17834;52.992;8.856;2023-08-17T09:11:22;3.60;;;1.35;;
31206;SDS011;17834;52.992;8.856;2023-08-17T09:13:48;3.20;;;1.50;;
31206;SDS011;17834;52.992;8.856;2023-08-17T09:16:13;2.85;;;1.20;;
31206;SDS011;17834;52.992;8.856;2023-08-17T09:18:39;2.90;;;1.50;;
31206;SDS011;17834;52.992;8.856;2023-08-17T09:21:05;2.25;;;1.40;;
31206;SDS011;17834;52.992;8.856;2023-08-17T09:23:30;3.28;;;1.30;;
31206;SDS011;17834;52.992;8.856;2023-08-17T09:25:56;3.17;;;1.30;;
31206;SDS011;17834;52.992;8.856;2023-08-17T09:28:23;2.38;;;1.63;;
31206;SDS011;17834;52.992;8.856;2023-08-17T09:30:59;2.88;;;1.30;;
31206;SDS011;17834;52.992;8.856;2023-08-17T09:33:27;3.30;;;1.60;;
31206;SDS011;17834;52.992;8.856;2023-08-17T09:35:54;4.45;;;1.80;;
31206;SDS011;17834;52.992;8.856;2023-08-17T09:38:20;4.43;;;1.50;;
31206;SDS011;17834;52.992;8.856;2023-08-17T09:40:47;3.40;;;1.73;;
31206;SDS011;17834;52.992;8.856;2023-08-17T09:43:16;2.25;;;1.20;;
31206;SDS011;17834;52.992;8.856;2023-08-17T09:45:43;3.10;;;1.23;;
31206;SDS011;17834;52.992;8.856;2023-08-17T09:48:13;2.53;;;1.50;;
31206;SDS011;17834;52.992;8.856;2023-08-17T09:50:40;4.43;;;1.35;;
31206;SDS011;17834;52.992;8.856;2023-08-17T09:53:07;2.13;;;1.13;;
31206;SDS011;17834;52.992;8.856;2023-08-17T09:55:37;2.67;;;1.15;;
31206;SDS011;17834;52.992;8.856;2023-08-17T09:58:05;1.70;;;1.10;;
31206;SDS011;17834;52.992;8.856;2023-08-17T10:00:33;2.22;;;0.98;;
31206;SDS011;17834;52.992;8.856;2023-08-17T10:02:59;2.78;;;1.10;;
31206;SDS011;17834;52.992;8.856;2023-08-17T10:05:28;2.10;;;1.13;;
31206;SDS011;17834;52.992;8.856;2023-08-17T10:07:57;2.20;;;1.00;;
31206;SDS011;17834;52.992;8.856;2023-08-17T10:10:25;2.35;;;0.95;;
31206;SDS011;17834;52.992;8.856;2023-08-17T10:15:37;2.97;;;1.08;;
31206;SDS011;17834;52.992;8.856;2023-08-17T10:18:13;4.00;;;1.30;;
31206;SDS011;17834;52.992;8.856;2023-08-17T10:20:45;3.97;;;1.20;;
31206;SDS011;17834;52.992;8.856;2023-08-17T10:23:19;2.30;;;1.13;;
31206;SDS011;17834;52.992;8.856;2023-08-17T10:25:47;3.20;;;1.13;;
31206;SDS011;17834;52.992;8.856;2023-08-17T10:28:15;2.08;;;1.05;;
31206;SDS011;17834;52.992;8.856;2023-08-17T10:30:42;3.63;;;1.67;;
31206;SDS011;17834;52.992;8.856;2023-08-17T10:33:08;2.20;;;1.30;;
31206;SDS011;17834;52.992;8.856;2023-08-17T10:35:35;2.38;;;1.30;;
31206;SDS011;17834;52.992;8.856;2023-08-17T10:38:02;5.85;;;1.45;;
31206;SDS011;17834;52.992;8.856;2023-08-17T10:40:34;2.60;;;1.40;;
31206;SDS011;17834;52.992;8.856;2023-08-17T10:43:01;4.05;;;1.75;;
31206;SDS011;17834;52.992;8.856;2023-08-17T10:45:29;3.70;;;1.30;;
31206;SDS011;17834;52.992;8.856;2023-08-17T10:50:36;2.17;;;1.27;;
31206;SDS011;17834;52.992;8.856;2023-08-17T10:53:10;3.75;;;1.70;;
31206;SDS011;17834;52.992;8.856;2023-08-17T10:55:37;4.40;;;1.52;;
31206;SDS011;17834;52.992;8.856;2023-08-17T10:58:07;2.60;;;1.50;;
31206;SDS011;17834;52.992;8.856;2023-08-17T11:00:36;2.22;;;1.45;;
31206;SDS011;17834;52.992;8.856;2023-08-17T11:03:06;2.03;;;1.25;;
31206;SDS011;17834;52.992;8.856;2023-08-17T11:05:36;2.75;;;2.10;;
31206;SDS011;17834;52.992;8.856;2023-08-17T11:08:28;3.67;;;1.80;;
31206;SDS011;17834;52.992;8.856;2023-08-17T11:11:05;2.67;;;1.67;;
31206;SDS011;17834;52.992;8.856;2023-08-17T11:13:40;3.95;;;1.25;;
31206;SDS011;17834;52.992;8.856;2023-08-17T11:16:08;3.95;;;1.58;;
31206;SDS011;17834;52.992;8.856;2023-08-17T11:18:35;2.30;;;1.48;;
31206;SDS011;17834;52.992;8.856;2023-08-17T11:21:05;4.57;;;1.63;;
31206;SDS011;17834;52.992;8.856;2023-08-17T11:23:31;2.90;;;1.48;;
31206;SDS011;17834;52.992;8.856;2023-08-17T11:25:59;4.15;;;1.48;;
31206;SDS011;17834;52.992;8.856;2023-08-17T11:28:25;3.28;;;1.67;;
31206;SDS011;17834;52.992;8.856;2023-08-17T11:31:00;2.25;;;1.42;;
31206;SDS011;17834;52.992;8.856;2023-08-17T11:33:27;2.75;;;1.80;;
31206;SDS011;17834;52.992;8.856;2023-08-17T11:35:54;3.15;;;1.40;;
31206;SDS011;17834;52.992;8.856;2023-08-17T11:38:20;3.28;;;1.80;;
31206;SDS011;17834;52.992;8.856;2023-08-17T11:40:47;4.40;;;1.95;;
31206;SDS011;17834;52.992;8.856;2023-08-17T11:43:13;4.30;;;2.10;;
31206;SDS011;17834;52.992;8.856;2023-08-17T11:45:39;3.13;;;1.85;;
31206;SDS011;17834;52.992;8.856;2023-08-17T11:48:06;2.85;;;1.80;;
31206;SDS011;17834;52.992;8.856;2023-08-17T11:50:32;3.22;;;1.90;;
31206;SDS011;17834;52.992;8.856;2023-08-17T11:53:01;3.00;;;1.90;;
31206;SDS011;17834;52.992;8.856;2023-08-17T11:55:29;5.13;;;1.85;;
31206;SDS011;17834;52.992;8.856;2023-08-17T11:57:55;2.92;;;1.98;;
31206;SDS011;17834;52.992;8.856;2023-08-17T12:00:21;2.70;;;1.77;;
31206;SDS011;17834;52.992;8.856;2023-08-17T12:02:50;2.28;;;1.73;;
31206;SDS011;17834;52.992;8.856;2023-08-17T12:05:20;3.35;;;2.05;;
31206;SDS011;17834;52.992;8.856;2023-08-17T12:07:48;5.18;;;1.60;;
31206;SDS011;17834;52.992;8.856;2023-08-17T12:10:14;5.32;;;2.30;;
31206;SDS011;17834;52.992;8.856;2023-08-17T12:12:40;2.60;;;1.70;;
31206;SDS011;17834;52.992;8.856;2023-08-17T12:15:06;3.75;;;1.90;;
31206;SDS011;17834;52.992;8.856;2023-08-17T12:17:32;2.58;;;1.23;;
31206;SDS011;17834;52.992;8.856;2023-08-17T12:19:58;3.65;;;1.27;;
31206;SDS011;17834;52.992;8.856;2023-08-17T12:22:25;3.70;;;1.90;;
31206;SDS011;17834;52.992;8.856;2023-08-17T12:24:51;3.28;;;1.60;;
31206;SDS011;17834;52.992;8.856;2023-08-17T12:27:17;4.88;;;1.67;;
31206;SDS011;17834;52.992;8.856;2023-08-17T12:29:50;3.28;;;1.70;;
31206;SDS011;17834;52.992;8.856;2023-08-17T12:32:16;4.40;;;1.70;;
31206;SDS011;17834;52.992;8.856;2023-08-17T12:34:42;2.85;;;1.80;;
31206;SDS011;17834;52.992;8.856;2023-08-17T12:37:09;3.40;;;1.85;;
31206;SDS011;17834;52.992;8.856;2023-08-17T12:39:35;3.17;;;1.90;;
31206;SDS011;17834;52.992;8.856;2023-08-17T12:42:01;3.72;;;2.00;;
31206;SDS011;17834;52.992;8.856;2023-08-17T12:44:27;2.75;;;1.33;;
31206;SDS011;17834;52.992;8.856;2023-08-17T12:46:53;2.83;;;1.42;;
31206;SDS011;17834;52.992;8.856;2023-08-17T12:49:18;2.38;;;1.30;;
31206;SDS011;17834;52.992;8.856;2023-08-17T12:51:44;1.75;;;1.20;;
31206;SDS011;17834;52.992;8.856;2023-08-17T12:54:09;3.03;;;1.40;;
31206;SDS011;17834;52.992;8.856;2023-08-17T12:56:35;2.58;;;0.93;;
31206;SDS011;17834;52.992;8.856;2023-08-17T12:59:00;2.05;;;0.98;;
31206;SDS011;17834;52.992;8.856;2023-08-17T13:01:26;2.40;;;1.23;;
31206;SDS011;17834;52.992;8.856;2023-08-17T13:03:51;3.38;;;1.38;;
31206;SDS011;17834;52.992;8.856;2023-08-17T13:06:17;2.65;;;1.05;;
31206;SDS011;17834;52.992;8.856;2023-08-17T13:08:42;4.82;;;1.20;;
31206;SDS011;17834;52.992;8.856;2023-08-17T13:11:08;3.53;;;1.23;;
31206;SDS011;17834;52.992;8.856;2023-08-17T13:13:33;1.67;;;0.98;;
31206;SDS011;17834;52.992;8.856;2023-08-17T13:15:59;1.52;;;0.90;;
31206;SDS011;17834;52.992;8.856;2023-08-17T13:18:24;2.05;;;0.80;;
31206;SDS011;17834;52.992;8.856;2023-08-17T13:20:50;2.92;;;1.00;;
31206;SDS011;17834;52.992;8.856;2023-08-17T13:23:15;1.52;;;0.98;;
31206;SDS011;17834;52.992;8.856;2023-08-17T13:25:41;1.38;;;0.90;;
31206;SDS011;17834;52.992;8.856;2023-08-17T13:28:07;1.73;;;0.80;;
31206;SDS011;17834;52.992;8.856;2023-08-17T13:30:33;1.60;;;0.90;;
31206;SDS011;17834;52.992;8.856;2023-08-17T13:32:58;2.13;;;1.00;;
31206;SDS011;17834;52.992;8.856;2023-08-17T13:35:24;1.50;;;0.75;;
31206;SDS011;17834;52.992;8.856;2023-08-17T13:37:52;1.35;;;0.80;;
31206;SDS011;17834;52.992;8.856;2023-08-17T13:40:24;1.00;;;0.60;;
31206;SDS011;17834;52.992;8.856;2023-08-17T13:42:49;2.13;;;0.85;;
31206;SDS011;17834;52.992;8.856;2023-08-17T13:45:15;1.02;;;0.60;;
31206;SDS011;17834;52.992;8.856;2023-08-17T13:47:41;3.38;;;0.73;;
31206;SDS011;17834;52.992;8.856;2023-08-17T13:50:06;1.05;;;0.70;;
31206;SDS011;17834;52.992;8.856;2023-08-17T13:52:32;1.58;;;0.60;;
31206;SDS011;17834;52.992;8.856;2023-08-17T13:54:58;1.73;;;0.65;;
31206;SDS011;17834;52.992;8.856;2023-08-17T13:57:23;1.35;;;0.75;;
31206;SDS011;17834;52.992;8.856;2023-08-17T13:59:49;1.23;;;0.65;;
31206;SDS011;17834;52.992;8.856;2023-08-17T14:02:14;0.95;;;0.68;;
31206;SDS011;17834;52.992;8.856;2023-08-17T14:04:40;1.48;;;0.77;;
31206;SDS011;17834;52.992;8.856;2023-08-17T14:07:07;2.05;;;0.75;;
31206;SDS011;17834;52.992;8.856;2023-08-17T14:09:32;2.00;;;0.75;;
31206;SDS011;17834;52.992;8.856;2023-08-17T14:11:58;1.75;;;0.73;;
31206;SDS011;17834;52.992;8.856;2023-08-17T14:14:24;2.65;;;0.82;;
31206;SDS011;17834;52.992;8.856;2023-08-17T14:16:50;1.75;;;0.88;;
31206;SDS011;17834;52.992;8.856;2023-08-17T14:19:15;2.25;;;0.85;;
31206;SDS011;17834;52.992;8.856;2023-08-17T14:21:41;0.90;;;0.65;;
31206;SDS011;17834;52.992;8.856;2023-08-17T14:24:06;1.50;;;0.70;;
31206;SDS011;17834;52.992;8.856;2023-08-17T14:26:33;1.27;;;0.73;;
31206;SDS011;17834;52.992;8.856;2023-08-17T14:28:58;1.85;;;0.80;;
31206;SDS011;17834;52.992;8.856;2023-08-17T14:31:24;1.27;;;0.82;;
31206;SDS011;17834;52.992;8.856;2023-08-17T14:33:49;3.17;;;1.08;;
31206;SDS011;17834;52.992;8.856;2023-08-17T14:36:15;1.20;;;0.73;;
31206;SDS011;17834;52.992;8.856;2023-08-17T14:38:41;4.80;;;1.02;;
31206;SDS011;17834;52.992;8.856;2023-08-17T14:41:07;1.95;;;0.80;;
31206;SDS011;17834;52.992;8.856;2023-08-17T14:43:34;1.27;;;0.65;;
31206;SDS011;17834;52.992;8.856;2023-08-17T14:45:59;1.83;;;0.90;;
31206;SDS011;17834;52.992;8.856;2023-08-17T14:48:25;1.50;;;0.93;;
31206;SDS011;17834;52.992;8.856;2023-08-17T14:50:51;2.75;;;0.90;;